createdAt,value
2023-01-12T00:02:00.606Z,23.83
2023-01-12T00:04:30.855Z,16.57
2023-01-12T00:06:59.415Z,13.07
2023-01-12T00:09:27.009Z,16.00
2023-01-12T00:11:54.344Z,15.57
2023-01-12T00:14:21.453Z,15.77
2023-01-12T00:16:48.651Z,16.10
2023-01-12T00:19:21.729Z,13.63
2023-01-12T00:21:57.172Z,16.63
2023-01-12T00:24:36.785Z,20.03
2023-01-12T00:27:07.432Z,17.57
2023-01-12T00:29:35.898Z,14.60
2023-01-12T00:32:03.992Z,14.57
2023-01-12T00:34:31.593Z,16.03
2023-01-12T00:37:00.907Z,17.73
2023-01-12T00:39:28.240Z,21.43
2023-01-12T00:42:13.592Z,14.13
2023-01-12T00:44:59.507Z,10.10
2023-01-12T00:47:26.648Z,12.00
2023-01-12T00:49:53.803Z,21.67
2023-01-12T00:52:35.972Z,23.43
2023-01-12T00:55:03.357Z,18.70
2023-01-12T00:57:30.708Z,14.73
2023-01-12T01:00:00.009Z,12.73
2023-01-12T01:02:28.365Z,17.97
2023-01-12T01:04:56.401Z,18.90
2023-01-12T01:07:23.809Z,18.63
2023-01-12T01:09:51.531Z,14.93
2023-01-12T01:12:19.416Z,17.47
2023-01-12T01:14:47.700Z,20.43
2023-01-12T01:17:15.257Z,18.37
2023-01-12T01:19:43.554Z,17.90
2023-01-12T01:22:12.466Z,18.00
2023-01-12T01:24:40.641Z,14.60
2023-01-12T01:27:07.766Z,11.87
2023-01-12T01:29:34.879Z,15.33
2023-01-12T01:32:02.067Z,18.07
2023-01-12T01:34:29.392Z,14.43
2023-01-12T01:36:56.541Z,14.87
2023-01-12T01:39:23.716Z,15.40
2023-01-12T01:41:51.150Z,15.73
2023-01-12T01:44:30.654Z,16.20
2023-01-12T01:47:08.023Z,15.33
2023-01-12T01:49:46.510Z,18.40
2023-01-12T01:52:28.353Z,14.10
2023-01-12T01:55:14.269Z,12.53
2023-01-12T01:57:53.389Z,15.67
2023-01-12T02:00:20.951Z,13.33
2023-01-12T02:02:48.920Z,13.27
2023-01-12T02:05:24.306Z,14.23
2023-01-12T02:07:52.795Z,11.30
2023-01-12T02:10:20.673Z,10.03
2023-01-12T02:13:09.264Z,11.00
2023-01-12T02:16:11.423Z,13.20
2023-01-12T02:19:29.223Z,14.60
2023-01-12T02:22:20.362Z,12.07
2023-01-12T02:25:16.298Z,12.53
2023-01-12T02:28:21.786Z,9.47
2023-01-12T02:31:26.957Z,14.10
2023-01-12T02:34:15.878Z,12.90
2023-01-12T02:36:56.420Z,9.03
2023-01-12T02:39:30.910Z,10.37
2023-01-12T02:42:40.601Z,8.20
2023-01-12T02:45:35.251Z,13.37
2023-01-12T02:48:27.297Z,9.53
2023-01-12T02:51:05.769Z,12.63
2023-01-12T02:53:51.132Z,10.00
2023-01-12T02:56:33.486Z,12.33
2023-01-12T02:59:20.025Z,9.40
2023-01-12T03:01:54.646Z,10.57
2023-01-12T03:04:27.771Z,10.60
2023-01-12T03:06:57.747Z,12.77
2023-01-12T03:09:31.545Z,11.63
2023-01-12T03:12:23.804Z,12.47
2023-01-12T03:14:54.014Z,10.00
2023-01-12T03:17:33.962Z,9.87
2023-01-12T03:20:07.977Z,16.23
2023-01-12T03:22:37.658Z,12.20
2023-01-12T03:25:11.125Z,13.13
2023-01-12T03:27:43.783Z,9.20
2023-01-12T03:30:15.326Z,9.53
2023-01-12T03:32:42.893Z,10.60
2023-01-12T03:35:10.541Z,12.87
2023-01-12T03:37:41.157Z,10.93
2023-01-12T03:40:18.582Z,10.87
2023-01-12T03:43:02.816Z,11.87
2023-01-12T03:45:33.412Z,11.80
2023-01-12T03:48:24.715Z,11.60
2023-01-12T03:51:02.766Z,10.60
2023-01-12T03:53:31.616Z,8.03
2023-01-12T03:56:06.016Z,11.83
2023-01-12T03:58:34.964Z,12.97
2023-01-12T04:01:03.970Z,11.20
2023-01-12T04:03:31.537Z,10.80
2023-01-12T04:05:58.654Z,13.90
2023-01-12T04:08:25.756Z,8.83
2023-01-12T04:10:52.867Z,10.53
2023-01-12T04:13:22.777Z,9.10
2023-01-12T04:15:50.079Z,5.80
2023-01-12T04:18:17.677Z,6.30
2023-01-12T04:20:47.064Z,7.40
2023-01-12T04:23:14.325Z,6.90
2023-01-12T04:25:41.511Z,8.17
2023-01-12T04:28:08.723Z,8.63
2023-01-12T04:30:35.996Z,5.20
2023-01-12T04:33:08.171Z,5.17
2023-01-12T04:35:35.561Z,8.83
2023-01-12T04:38:09.653Z,4.50
2023-01-12T04:40:36.939Z,6.67
2023-01-12T04:43:07.420Z,8.80
2023-01-12T04:45:38.749Z,6.33
2023-01-12T04:48:10.101Z,6.73
2023-01-12T04:50:38.953Z,8.50
2023-01-12T04:53:09.401Z,8.27
2023-01-12T04:55:38.592Z,10.23
2023-01-12T04:58:06.202Z,8.03
2023-01-12T05:00:33.908Z,9.43
2023-01-12T05:03:02.324Z,9.73
2023-01-12T05:05:32.103Z,8.47
2023-01-12T05:08:19.674Z,8.73
2023-01-12T05:10:59.333Z,12.27
2023-01-12T05:13:30.568Z,10.17
2023-01-12T05:15:57.782Z,13.93
2023-01-12T05:18:26.712Z,12.47
2023-01-12T05:20:56.910Z,10.37
2023-01-12T05:23:24.148Z,11.50
2023-01-12T05:25:51.305Z,7.47
2023-01-12T05:28:18.537Z,9.70
2023-01-12T05:30:46.022Z,8.03
2023-01-12T05:33:16.579Z,8.63
2023-01-12T05:35:43.975Z,11.47
2023-01-12T05:38:11.629Z,11.43
2023-01-12T05:40:38.869Z,12.90
2023-01-12T05:43:24.570Z,8.57
2023-01-12T05:45:52.187Z,8.57
2023-01-12T05:48:19.495Z,5.83
2023-01-12T05:50:46.684Z,8.30
2023-01-12T05:53:13.920Z,6.00
2023-01-12T05:55:41.128Z,11.87
2023-01-12T05:58:08.261Z,9.13
2023-01-12T06:00:35.518Z,11.80
2023-01-12T06:03:03.491Z,7.23
2023-01-12T06:05:30.681Z,9.07
2023-01-12T06:07:59.128Z,8.03
2023-01-12T06:10:26.474Z,10.23
2023-01-12T06:13:12.213Z,9.60
2023-01-12T06:15:39.481Z,12.60
2023-01-12T06:18:07.040Z,10.20
2023-01-12T06:20:34.312Z,10.67
2023-01-12T06:23:03.682Z,11.97
2023-01-12T06:25:32.170Z,10.73
2023-01-12T06:27:59.649Z,10.17
2023-01-12T06:30:26.773Z,7.83
2023-01-12T06:32:53.916Z,10.50
2023-01-12T06:35:21.206Z,11.83
2023-01-12T06:37:48.670Z,8.67
2023-01-12T06:40:16.206Z,10.27
2023-01-12T06:42:43.483Z,8.07
2023-01-12T06:45:12.335Z,9.73
2023-01-12T06:47:52.014Z,7.57
2023-01-12T06:50:19.447Z,11.00
2023-01-12T06:52:46.672Z,7.07
2023-01-12T06:55:14.099Z,8.97
2023-01-12T06:57:41.418Z,10.57
2023-01-12T07:00:09.741Z,9.47
2023-01-12T07:02:38.254Z,6.00
2023-01-12T07:05:06.480Z,10.13
2023-01-12T07:07:33.806Z,8.57
2023-01-12T07:10:01.029Z,6.93
2023-01-12T07:12:28.254Z,9.40
2023-01-12T07:14:56.264Z,10.60
2023-01-12T07:17:23.668Z,7.60
2023-01-12T07:19:50.973Z,7.07
2023-01-12T07:22:18.256Z,7.37
2023-01-12T07:24:45.465Z,9.13
2023-01-12T07:27:12.610Z,6.67
2023-01-12T07:29:39.861Z,10.47
2023-01-12T07:32:07.307Z,6.93
2023-01-12T07:34:34.540Z,10.00
2023-01-12T07:37:01.640Z,7.47
2023-01-12T07:39:28.775Z,6.40
2023-01-12T07:42:14.523Z,8.03
2023-01-12T07:44:42.009Z,5.83
2023-01-12T07:47:09.387Z,6.47
2023-01-12T07:49:37.279Z,5.70
2023-01-12T07:52:04.515Z,6.40
2023-01-12T07:54:33.585Z,5.83
2023-01-12T07:57:00.790Z,6.87
2023-01-12T07:59:28.112Z,9.27
2023-01-12T08:01:55.645Z,8.53
2023-01-12T08:04:23.311Z,8.70
2023-01-12T08:06:50.553Z,7.27
2023-01-12T08:09:17.754Z,7.10
2023-01-12T08:11:44.971Z,6.67
2023-01-12T08:14:29.207Z,5.50
2023-01-12T08:17:01.646Z,7.63
2023-01-12T08:19:38.758Z,6.70
2023-01-12T08:22:15.881Z,3.73
2023-01-12T08:24:52.953Z,6.17
2023-01-12T08:27:24.894Z,4.83
2023-01-12T08:29:56.294Z,6.37
2023-01-12T08:32:23.971Z,5.00
2023-01-12T08:34:54.177Z,4.50
2023-01-12T08:37:24.360Z,5.53
2023-01-12T08:39:52.707Z,6.03
2023-01-12T08:42:20.692Z,6.23
2023-01-12T08:44:48.099Z,4.70
2023-01-12T08:47:28.348Z,6.50
2023-01-12T08:49:57.695Z,5.43
2023-01-12T08:52:25.595Z,5.43
2023-01-12T08:54:52.732Z,4.73
2023-01-12T08:57:19.929Z,4.90
2023-01-12T08:59:47.158Z,3.97
2023-01-12T09:02:15.756Z,6.80
2023-01-12T09:04:43.275Z,3.00
2023-01-12T09:07:11.859Z,5.07
2023-01-12T09:09:39.091Z,3.50
2023-01-12T09:12:07.154Z,3.87
2023-01-12T09:14:38.832Z,2.40
2023-01-12T09:17:07.476Z,2.77
2023-01-12T09:19:34.928Z,3.60
2023-01-12T09:22:02.211Z,3.33
2023-01-12T09:24:29.504Z,4.27
2023-01-12T09:26:56.780Z,3.17
2023-01-12T09:29:24.018Z,3.50
2023-01-12T09:31:51.583Z,5.10
2023-01-12T09:34:18.759Z,6.90
2023-01-12T09:36:46.073Z,3.63
2023-01-12T09:39:26.977Z,4.07
2023-01-12T09:42:15.431Z,2.73
2023-01-12T09:45:09.415Z,2.70
2023-01-12T09:47:55.018Z,2.80
2023-01-12T09:50:52.400Z,5.93
2023-01-12T09:53:27.803Z,3.83
2023-01-12T09:56:29.658Z,4.87
2023-01-12T09:59:18.473Z,2.00
2023-01-12T10:01:46.094Z,1.77
2023-01-12T10:04:14.055Z,1.93
2023-01-12T10:06:41.597Z,1.30
2023-01-12T10:09:18.772Z,2.40
2023-01-12T10:12:06.381Z,2.00
2023-01-12T10:14:33.375Z,1.60
2023-01-12T10:17:38.654Z,1.40
2023-01-12T10:20:30.582Z,2.73
2023-01-12T10:23:16.763Z,2.60
2023-01-12T10:25:51.571Z,2.27
2023-01-12T10:28:33.299Z,1.40
2023-01-12T10:31:01.503Z,1.67
2023-01-12T10:33:34.493Z,2.23
2023-01-12T10:36:18.834Z,1.77
2023-01-12T10:39:00.814Z,2.37
2023-01-12T10:41:31.233Z,1.67
2023-01-12T10:43:58.474Z,1.23
2023-01-12T10:46:32.366Z,2.10
2023-01-12T10:49:24.587Z,1.53
2023-01-12T10:52:02.397Z,1.90
2023-01-12T10:54:33.783Z,2.03
2023-01-12T10:57:21.993Z,2.23
2023-01-12T10:59:59.230Z,1.70
2023-01-12T11:02:28.999Z,2.70
2023-01-12T11:04:56.274Z,2.00
2023-01-12T11:07:31.269Z,1.40
2023-01-12T11:10:25.497Z,2.40
2023-01-12T11:13:03.851Z,2.07
2023-01-12T11:15:38.875Z,2.27
2023-01-12T11:18:36.168Z,1.70
2023-01-12T11:21:10.890Z,2.27
2023-01-12T11:24:03.440Z,3.47
2023-01-12T11:26:39.489Z,2.60
2023-01-12T11:29:54.783Z,3.40
2023-01-12T11:32:50.251Z,3.53
2023-01-12T11:35:51.844Z,1.70
2023-01-12T11:38:37.137Z,1.60
2023-01-12T11:41:09.698Z,2.40
2023-01-12T11:43:55.826Z,2.90
2023-01-12T11:46:42.745Z,1.67
2023-01-12T11:49:27.221Z,1.67
2023-01-12T11:51:57.934Z,3.57
2023-01-12T11:54:27.779Z,3.43
2023-01-12T11:57:32.530Z,0.97
2023-01-12T12:00:40.095Z,1.30
2023-01-12T12:03:55.477Z,2.17
2023-01-12T12:06:48.980Z,1.60
2023-01-12T12:09:34.582Z,2.53
2023-01-12T12:12:20.516Z,2.63
2023-01-12T12:15:16.930Z,2.57
2023-01-12T12:18:04.874Z,2.20
2023-01-12T12:20:55.575Z,1.73
2023-01-12T12:23:55.241Z,1.47
2023-01-12T12:26:40.541Z,2.33
2023-01-12T12:29:31.891Z,1.50
2023-01-12T12:32:58.332Z,1.57
2023-01-12T12:35:51.103Z,1.57
2023-01-12T12:38:55.547Z,1.77
2023-01-12T12:42:04.674Z,1.70
2023-01-12T12:45:30.589Z,1.50
2023-01-12T12:48:15.771Z,1.50
2023-01-12T12:51:04.772Z,1.63
2023-01-12T12:53:44.980Z,1.70
2023-01-12T12:56:17.505Z,1.50
2023-01-12T12:58:47.456Z,2.10
2023-01-12T13:01:23.671Z,1.97
2023-01-12T13:04:06.002Z,1.50
2023-01-12T13:06:45.031Z,1.40
2023-01-12T13:09:12.176Z,1.00
2023-01-12T13:11:55.394Z,1.30
2023-01-12T13:14:35.218Z,1.37
2023-01-12T13:17:23.555Z,1.40
2023-01-12T13:20:13.688Z,1.83
2023-01-12T13:22:49.412Z,1.20
2023-01-12T13:25:17.048Z,0.80
2023-01-12T13:28:03.279Z,1.00
2023-01-12T13:30:30.542Z,1.20
2023-01-12T13:33:17.554Z,1.30
2023-01-12T13:35:45.050Z,1.40
2023-01-12T13:38:36.253Z,1.20
2023-01-12T13:41:44.706Z,1.47
2023-01-12T13:44:21.617Z,1.40
2023-01-12T13:46:51.560Z,1.30
2023-01-12T13:49:27.584Z,1.00
2023-01-12T13:52:35.536Z,1.00
2023-01-12T13:55:17.545Z,1.57
2023-01-12T13:58:04.185Z,1.20
2023-01-12T14:00:33.773Z,1.60
2023-01-12T14:03:03.683Z,1.20
2023-01-12T14:06:08.428Z,1.43
2023-01-12T14:09:06.131Z,1.47
2023-01-12T14:11:55.362Z,1.10
2023-01-12T14:15:41.591Z,1.10
2023-01-12T14:18:18.672Z,1.20
2023-01-12T14:20:59.055Z,1.73
2023-01-12T14:23:26.484Z,1.80
2023-01-12T14:26:27.229Z,1.10
2023-01-12T14:28:54.558Z,1.37
2023-01-12T14:31:48.388Z,1.77
2023-01-12T14:34:46.414Z,1.83
2023-01-12T14:37:29.992Z,2.90
2023-01-12T14:39:57.579Z,3.37
2023-01-12T14:42:43.547Z,1.60
2023-01-12T14:45:43.983Z,1.80
2023-01-12T14:48:34.082Z,3.33
2023-01-12T14:51:10.399Z,2.13
2023-01-12T14:53:43.141Z,3.10
2023-01-12T14:56:20.224Z,2.73
2023-01-12T14:58:48.527Z,3.20
2023-01-12T15:01:35.921Z,5.20
2023-01-12T15:04:06.029Z,3.13
2023-01-12T15:06:43.139Z,4.90
2023-01-12T15:09:30.848Z,5.80
2023-01-12T15:11:58.517Z,3.37
2023-01-12T15:14:29.272Z,4.37
2023-01-12T15:17:15.143Z,3.53
2023-01-12T15:20:00.757Z,5.43
2023-01-12T15:22:47.444Z,5.27
2023-01-12T15:25:36.204Z,4.90
2023-01-12T15:28:06.290Z,4.70
2023-01-12T15:30:38.455Z,5.80
2023-01-12T15:33:06.127Z,12.17
2023-01-12T15:35:34.148Z,3.87
2023-01-12T15:38:01.278Z,3.90
2023-01-12T15:40:29.931Z,4.83
2023-01-12T15:42:59.208Z,6.63
2023-01-12T15:45:47.063Z,2.80
2023-01-12T15:48:14.373Z,7.83
2023-01-12T15:50:44.656Z,4.77
2023-01-12T15:53:20.672Z,4.80
2023-01-12T15:55:48.844Z,6.50
2023-01-12T15:58:17.040Z,4.17
2023-01-12T16:00:45.020Z,7.63
2023-01-12T16:03:32.094Z,6.93
2023-01-12T16:06:01.060Z,6.77
2023-01-12T16:08:28.264Z,4.07
2023-01-12T16:11:12.501Z,6.93
2023-01-12T16:13:40.766Z,4.83
2023-01-12T16:16:15.245Z,4.77
2023-01-12T16:18:42.527Z,3.87
2023-01-12T16:21:17.995Z,4.17
2023-01-12T16:23:45.899Z,3.53
2023-01-12T16:26:13.208Z,6.23
2023-01-12T16:28:40.520Z,8.13
2023-01-12T16:31:10.636Z,6.60
2023-01-12T16:33:39.476Z,5.73
2023-01-12T16:36:07.797Z,6.60
2023-01-12T16:38:36.061Z,6.80
2023-01-12T16:41:22.427Z,6.17
2023-01-12T16:43:50.048Z,6.23
2023-01-12T16:46:18.219Z,3.30
2023-01-12T16:48:45.740Z,6.00
2023-01-12T16:51:16.072Z,5.80
2023-01-12T16:53:43.938Z,6.67
2023-01-12T16:56:14.970Z,4.27
2023-01-12T16:58:48.187Z,5.30
2023-01-12T17:01:21.288Z,8.50
2023-01-12T17:03:50.970Z,5.60
2023-01-12T17:06:21.383Z,7.10
2023-01-12T17:08:49.238Z,9.10
2023-01-12T17:11:24.109Z,5.50
2023-01-12T17:13:54.410Z,5.50
2023-01-12T17:16:24.315Z,11.20
2023-01-12T17:18:52.626Z,7.17
2023-01-12T17:21:21.069Z,6.00
2023-01-12T17:23:48.947Z,4.70
2023-01-12T17:26:18.387Z,6.13
2023-01-12T17:28:47.384Z,4.73
2023-01-12T17:31:18.718Z,3.17
2023-01-12T17:33:46.666Z,4.83
2023-01-12T17:36:14.656Z,6.47
2023-01-12T17:38:42.068Z,6.03
2023-01-12T17:41:33.087Z,4.33
2023-01-12T17:44:05.415Z,5.13
2023-01-12T17:46:34.268Z,7.43
2023-01-12T17:49:06.346Z,7.10
2023-01-12T17:51:34.610Z,7.07
2023-01-12T17:54:05.008Z,5.77
2023-01-12T17:56:33.843Z,6.90
2023-01-12T17:59:02.836Z,6.70
2023-01-12T18:01:33.848Z,6.57
2023-01-12T18:04:02.270Z,8.60
2023-01-12T18:06:29.559Z,9.97
2023-01-12T18:08:59.421Z,8.60
2023-01-12T18:11:28.157Z,7.97
2023-01-12T18:13:56.031Z,7.63
2023-01-12T18:16:48.497Z,7.73
2023-01-12T18:19:16.075Z,5.93
2023-01-12T18:21:44.008Z,7.70
2023-01-12T18:24:11.704Z,9.30
2023-01-12T18:26:39.227Z,10.10
2023-01-12T18:29:07.112Z,10.20
2023-01-12T18:31:38.110Z,9.70
2023-01-12T18:34:10.270Z,10.37
2023-01-12T18:36:40.843Z,10.23
2023-01-12T18:39:13.257Z,10.47
2023-01-12T18:41:58.989Z,12.63
2023-01-12T18:44:26.476Z,11.00
2023-01-12T18:47:13.622Z,9.47
2023-01-12T18:49:44.336Z,9.57
2023-01-12T18:52:31.672Z,10.30
2023-01-12T18:54:59.396Z,16.43
2023-01-12T18:57:30.552Z,10.37
2023-01-12T19:00:10.855Z,15.37
2023-01-12T19:02:40.724Z,12.00
2023-01-12T19:05:15.088Z,12.60
2023-01-12T19:08:04.855Z,11.70
2023-01-12T19:10:34.090Z,10.40
2023-01-12T19:13:19.911Z,10.13
2023-01-12T19:16:06.261Z,13.40
2023-01-12T19:18:37.468Z,13.53
2023-01-12T19:21:26.992Z,16.17
2023-01-12T19:24:12.819Z,14.20
2023-01-12T19:26:59.077Z,10.27
2023-01-12T19:29:26.498Z,13.33
2023-01-12T19:31:54.081Z,12.63
2023-01-12T19:34:21.628Z,14.07
2023-01-12T19:36:49.621Z,13.27
2023-01-12T19:39:25.545Z,14.17
2023-01-12T19:42:11.403Z,12.17
2023-01-12T19:44:38.850Z,10.67
2023-01-12T19:47:06.246Z,13.13
2023-01-12T19:49:33.654Z,14.37
2023-01-12T19:52:01.051Z,11.30
2023-01-12T19:54:29.815Z,11.63
2023-01-12T19:56:57.428Z,13.33
2023-01-12T19:59:25.126Z,13.07
2023-01-12T20:01:54.141Z,13.70
2023-01-12T20:04:21.644Z,13.20
2023-01-12T20:06:53.177Z,11.77
2023-01-12T20:09:20.605Z,15.17
2023-01-12T20:11:54.394Z,12.40
2023-01-12T20:14:22.522Z,12.53
2023-01-12T20:16:50.004Z,13.77
2023-01-12T20:19:19.557Z,14.73
2023-01-12T20:21:48.368Z,14.07
2023-01-12T20:24:17.655Z,11.83
2023-01-12T20:26:45.325Z,13.97
2023-01-12T20:29:12.738Z,13.43
2023-01-12T20:31:40.709Z,9.37
2023-01-12T20:34:08.359Z,5.50
2023-01-12T20:36:40.084Z,5.60
2023-01-12T20:39:11.515Z,6.43
2023-01-12T20:41:39.660Z,6.57
2023-01-12T20:44:07.858Z,6.20
2023-01-12T20:46:35.390Z,5.47
2023-01-12T20:49:02.907Z,6.27
2023-01-12T20:51:30.327Z,3.83
2023-01-12T20:53:59.985Z,2.90
2023-01-12T20:56:28.502Z,2.90
2023-01-12T20:58:58.688Z,4.13
2023-01-12T21:01:26.294Z,2.90
2023-01-12T21:03:53.651Z,2.60
2023-01-12T21:06:21.425Z,2.27
2023-01-12T21:08:48.981Z,2.53
2023-01-12T21:11:19.232Z,2.07
2023-01-12T21:13:47.181Z,2.60
2023-01-12T21:16:18.173Z,3.90
2023-01-12T21:18:46.553Z,3.17
2023-01-12T21:21:14.245Z,3.60
2023-01-12T21:23:41.648Z,3.53
2023-01-12T21:26:10.249Z,3.50
2023-01-12T21:28:39.712Z,3.90
2023-01-12T21:31:10.933Z,4.63
2023-01-12T21:33:38.727Z,3.87
2023-01-12T21:36:06.882Z,4.53
2023-01-12T21:38:34.325Z,3.70
2023-01-12T21:41:04.787Z,4.10
2023-01-12T21:43:33.487Z,4.27
2023-01-12T21:46:10.672Z,5.00
2023-01-12T21:48:38.305Z,5.20
2023-01-12T21:51:09.074Z,5.73
2023-01-12T21:53:36.729Z,4.33
2023-01-12T21:56:06.049Z,4.60
2023-01-12T21:58:35.998Z,4.50
2023-01-12T22:01:12.998Z,4.17
2023-01-12T22:03:41.352Z,4.27
2023-01-12T22:06:12.006Z,4.30
2023-01-12T22:08:41.848Z,4.10
2023-01-12T22:11:13.551Z,4.40
2023-01-12T22:13:43.585Z,3.90
2023-01-12T22:16:14.744Z,3.83
2023-01-12T22:18:52.475Z,3.40
2023-01-12T22:21:21.910Z,4.23
2023-01-12T22:23:49.706Z,3.60
2023-01-12T22:26:18.999Z,4.10
2023-01-12T22:28:48.793Z,3.63
2023-01-12T22:31:22.700Z,4.27
2023-01-12T22:34:03.935Z,3.67
2023-01-12T22:36:35.174Z,3.87
2023-01-12T22:39:02.735Z,3.27
2023-01-12T22:41:30.064Z,3.20
2023-01-12T22:43:57.656Z,3.47
2023-01-12T22:46:27.197Z,3.07
2023-01-12T22:48:57.355Z,2.97
2023-01-12T22:51:27.497Z,3.37
2023-01-12T22:53:55.954Z,3.07
2023-01-12T22:56:23.911Z,2.90
2023-01-12T22:58:54.442Z,3.37
2023-01-12T23:01:25.664Z,3.20
2023-01-12T23:03:55.902Z,3.20
2023-01-12T23:06:25.447Z,3.10
2023-01-12T23:08:52.974Z,4.00
2023-01-12T23:11:24.889Z,4.30
2023-01-12T23:13:55.044Z,3.30
2023-01-12T23:16:24.512Z,3.30
2023-01-12T23:18:55.231Z,4.27
2023-01-12T23:21:27.135Z,3.17
2023-01-12T23:23:58.107Z,3.40
2023-01-12T23:26:31.439Z,3.60
2023-01-12T23:29:02.367Z,3.67
2023-01-12T23:31:33.529Z,3.70
2023-01-12T23:34:01.554Z,4.47
2023-01-12T23:36:30.740Z,4.27
2023-01-12T23:39:01.403Z,4.53
2023-01-12T23:41:35.382Z,4.53
2023-01-12T23:44:06.436Z,4.70
2023-01-12T23:46:37.948Z,5.33
2023-01-12T23:49:06.007Z,4.70
2023-01-12T23:51:33.808Z,4.60
2023-01-12T23:54:02.850Z,4.70
2023-01-12T23:56:57.596Z,4.50
2023-01-12T23:59:25.297Z,5.17
